createdAt,value
2017-09-30T00:00:49.106Z,993.44
2017-09-30T00:01:49.105Z,993.42
2017-09-30T00:02:49.107Z,993.42
2017-09-30T00:03:49.112Z,993.43
2017-09-30T00:04:49.107Z,993.39
2017-09-30T00:05:49.107Z,993.38
2017-09-30T00:06:49.109Z,993.37
2017-09-30T00:07:49.108Z,993.36
2017-09-30T00:08:49.107Z,993.35
2017-09-30T00:09:49.108Z,993.34
2017-09-30T00:10:49.108Z,993.35
2017-09-30T00:11:49.109Z,993.35
2017-09-30T00:12:49.109Z,993.34
2017-09-30T00:13:49.110Z,993.33
2017-09-30T00:14:49.116Z,993.32
2017-09-30T00:15:49.109Z,993.33
2017-09-30T00:16:49.116Z,993.31
2017-09-30T00:17:49.108Z,993.29
2017-09-30T00:18:49.110Z,993.28
2017-09-30T00:19:49.113Z,993.26
2017-09-30T00:20:49.121Z,993.31
2017-09-30T00:21:49.110Z,993.27
2017-09-30T00:22:49.111Z,993.29
2017-09-30T00:23:49.110Z,993.3
2017-09-30T00:24:49.110Z,993.29
2017-09-30T00:25:49.116Z,993.29
2017-09-30T00:26:49.115Z,993.31
2017-09-30T00:27:49.115Z,993.29
2017-09-30T00:28:49.112Z,993.29
2017-09-30T00:29:49.121Z,993.29
2017-09-30T00:30:49.110Z,993.31
2017-09-30T00:31:49.114Z,993.28
2017-09-30T00:32:49.113Z,993.29
2017-09-30T00:33:49.121Z,993.26
2017-09-30T00:34:49.114Z,993.21
2017-09-30T00:35:49.122Z,993.21
2017-09-30T00:36:49.113Z,993.21
2017-09-30T00:37:49.115Z,993.26
2017-09-30T00:38:49.116Z,993.22
2017-09-30T00:39:49.117Z,993.19
2017-09-30T00:40:49.119Z,993.18
2017-09-30T00:41:49.117Z,993.18
2017-09-30T00:42:49.115Z,993.18
2017-09-30T00:43:49.114Z,993.14
2017-09-30T00:44:49.118Z,993.13
2017-09-30T00:45:49.116Z,993.13
2017-09-30T00:46:49.123Z,993.13
2017-09-30T00:47:49.120Z,993.1
2017-09-30T00:48:49.117Z,993.13
2017-09-30T00:49:49.122Z,993.12
2017-09-30T00:50:49.119Z,993.12
2017-09-30T00:51:49.119Z,993.1
2017-09-30T00:52:49.118Z,993.12
2017-09-30T00:53:49.120Z,993.14
2017-09-30T00:54:49.123Z,993.08
2017-09-30T00:55:49.119Z,993.06
2017-09-30T00:56:49.121Z,993.05
2017-09-30T00:57:49.124Z,993.06
2017-09-30T00:58:49.122Z,993.05
2017-09-30T00:59:49.122Z,993.05
2017-09-30T01:00:49.120Z,993.06
2017-09-30T01:01:49.138Z,993.06
2017-09-30T01:02:49.127Z,993.03
2017-09-30T01:03:49.120Z,993.04
2017-09-30T01:04:49.126Z,992.99
2017-09-30T01:05:49.126Z,993.01
2017-09-30T01:06:49.119Z,992.99
2017-09-30T01:07:49.127Z,992.99
2017-09-30T01:08:49.130Z,992.97
2017-09-30T01:09:49.129Z,992.96
2017-09-30T01:10:49.131Z,992.99
2017-09-30T01:11:49.124Z,992.95
2017-09-30T01:12:49.127Z,992.99
2017-09-30T01:13:49.132Z,992.96
2017-09-30T01:14:49.123Z,992.95
2017-09-30T01:15:49.123Z,992.97
2017-09-30T01:16:49.125Z,992.93
2017-09-30T01:17:49.122Z,992.93
2017-09-30T01:18:49.126Z,992.93
2017-09-30T01:19:49.186Z,992.92
2017-09-30T01:20:49.125Z,992.89
2017-09-30T01:21:49.125Z,992.89
2017-09-30T01:22:49.125Z,992.9
2017-09-30T01:23:49.130Z,992.87
2017-09-30T01:24:49.126Z,992.89
2017-09-30T01:25:49.125Z,992.88
2017-09-30T01:26:49.133Z,992.9
2017-09-30T01:27:49.127Z,992.9
2017-09-30T01:28:49.125Z,992.91
2017-09-30T01:29:49.126Z,992.89
2017-09-30T01:30:49.125Z,992.87
2017-09-30T01:31:49.128Z,992.88
2017-09-30T01:32:49.126Z,992.9
2017-09-30T01:33:49.125Z,992.91
2017-09-30T01:34:49.126Z,992.94
2017-09-30T01:35:49.127Z,992.92
2017-09-30T01:36:49.125Z,992.91
2017-09-30T01:37:49.125Z,992.91
2017-09-30T01:38:49.127Z,992.9
2017-09-30T01:39:49.125Z,992.93
2017-09-30T01:40:49.125Z,992.9
2017-09-30T01:41:49.127Z,992.88
2017-09-30T01:42:49.127Z,992.91
2017-09-30T01:43:49.126Z,992.89
2017-09-30T01:44:49.126Z,992.85
2017-09-30T01:45:49.327Z,992.84
2017-09-30T01:46:49.131Z,992.84
2017-09-30T01:47:49.127Z,992.79
2017-09-30T01:48:49.126Z,992.83
2017-09-30T01:49:49.127Z,992.8
2017-09-30T01:50:49.127Z,992.78
2017-09-30T01:51:49.128Z,992.81
2017-09-30T01:52:49.130Z,992.83
2017-09-30T01:53:49.128Z,992.83
2017-09-30T01:54:49.128Z,992.81
2017-09-30T01:55:49.128Z,992.85
2017-09-30T01:56:49.128Z,992.85
2017-09-30T01:57:49.130Z,992.84
2017-09-30T01:58:49.128Z,992.83
2017-09-30T01:59:49.131Z,992.83
2017-09-30T02:00:49.180Z,992.81
2017-09-30T02:01:49.128Z,992.8
2017-09-30T02:02:49.140Z,992.8
2017-09-30T02:03:49.130Z,992.77
2017-09-30T02:04:49.129Z,992.79
2017-09-30T02:05:49.132Z,992.83
2017-09-30T02:06:49.133Z,992.81
2017-09-30T02:07:49.131Z,992.76
2017-09-30T02:08:49.132Z,992.77
2017-09-30T02:09:49.132Z,992.82
2017-09-30T02:10:49.132Z,992.73
2017-09-30T02:11:49.133Z,992.8
2017-09-30T02:12:49.131Z,992.77
2017-09-30T02:13:49.131Z,992.77
2017-09-30T02:14:49.132Z,992.78
2017-09-30T02:15:51.035Z,992.76
2017-09-30T02:16:49.131Z,992.77
2017-09-30T02:17:49.132Z,992.77
2017-09-30T02:18:49.131Z,992.78
2017-09-30T02:19:49.131Z,992.76
2017-09-30T02:20:49.131Z,992.74
2017-09-30T02:21:49.135Z,992.68
2017-09-30T02:22:49.130Z,992.69
2017-09-30T02:23:49.130Z,992.64
2017-09-30T02:24:49.130Z,992.66
2017-09-30T02:25:49.131Z,992.69
2017-09-30T02:26:49.130Z,992.65
2017-09-30T02:27:49.131Z,992.63
2017-09-30T02:28:49.129Z,992.61
2017-09-30T02:29:49.128Z,992.6
2017-09-30T02:30:49.131Z,992.59
2017-09-30T02:31:49.127Z,992.6
2017-09-30T02:32:49.129Z,992.61
2017-09-30T02:33:49.128Z,992.55
2017-09-30T02:34:49.131Z,992.54
2017-09-30T02:35:49.127Z,992.53
2017-09-30T02:36:49.128Z,992.51
2017-09-30T02:37:49.127Z,992.52
2017-09-30T02:38:49.126Z,992.48
2017-09-30T02:39:49.125Z,992.53
2017-09-30T02:40:49.127Z,992.49
2017-09-30T02:41:49.124Z,992.5
2017-09-30T02:42:49.125Z,992.49
2017-09-30T02:43:49.127Z,992.44
2017-09-30T02:44:49.125Z,992.45
2017-09-30T02:45:49.125Z,992.42
2017-09-30T02:46:49.124Z,992.42
2017-09-30T02:47:49.124Z,992.39
2017-09-30T02:48:49.124Z,992.43
2017-09-30T02:49:49.123Z,992.41
2017-09-30T02:50:49.122Z,992.41
2017-09-30T02:51:49.122Z,992.39
2017-09-30T02:52:49.121Z,992.38
2017-09-30T02:53:49.125Z,992.39
2017-09-30T02:54:49.121Z,992.34
2017-09-30T02:55:49.122Z,992.33
2017-09-30T02:56:49.128Z,992.3
2017-09-30T02:57:49.151Z,992.26
2017-09-30T02:58:49.123Z,992.26
2017-09-30T02:59:49.121Z,992.28
2017-09-30T03:00:49.121Z,992.24
2017-09-30T03:01:49.121Z,992.23
2017-09-30T03:02:49.121Z,992.24
2017-09-30T03:03:49.137Z,992.21
2017-09-30T03:04:49.121Z,992.21
2017-09-30T03:05:49.121Z,992.21
2017-09-30T03:06:49.121Z,992.22
2017-09-30T03:07:49.121Z,992.19
2017-09-30T03:08:49.121Z,992.18
2017-09-30T03:09:49.121Z,992.24
2017-09-30T03:10:49.124Z,992.2
2017-09-30T03:11:49.123Z,992.2
2017-09-30T03:12:49.122Z,992.19
2017-09-30T03:13:49.124Z,992.17
2017-09-30T03:14:49.121Z,992.18
2017-09-30T03:15:49.122Z,992.19
2017-09-30T03:16:49.121Z,992.14
2017-09-30T03:17:49.123Z,992.14
2017-09-30T03:18:49.122Z,992.14
2017-09-30T03:19:49.122Z,992.18
2017-09-30T03:20:49.123Z,992.14
2017-09-30T03:21:49.123Z,992.16
2017-09-30T03:22:49.124Z,992.13
2017-09-30T03:23:49.125Z,992.12
2017-09-30T03:24:49.124Z,992.09
2017-09-30T03:25:49.123Z,992.06
2017-09-30T03:26:49.123Z,992.05
2017-09-30T03:27:49.124Z,992.03
2017-09-30T03:28:49.126Z,992.09
2017-09-30T03:29:49.124Z,992.05
2017-09-30T03:30:49.126Z,992.04
2017-09-30T03:31:49.125Z,991.99
2017-09-30T03:32:49.126Z,992
2017-09-30T03:33:49.124Z,992.03
2017-09-30T03:34:49.125Z,992.05
2017-09-30T03:35:49.126Z,992.02
2017-09-30T03:36:49.127Z,992.03
2017-09-30T03:37:49.125Z,992.08
2017-09-30T03:38:49.128Z,992.03
2017-09-30T03:39:49.127Z,992.05
2017-09-30T03:40:49.126Z,992.05
2017-09-30T03:41:49.126Z,992.06
2017-09-30T03:42:49.127Z,992.02
2017-09-30T03:43:49.131Z,992.06
2017-09-30T03:44:49.128Z,992.05
2017-09-30T03:45:49.127Z,992.04
2017-09-30T03:46:51.535Z,992.12
2017-09-30T03:47:49.127Z,992.11
2017-09-30T03:48:49.128Z,992.12
2017-09-30T03:49:49.128Z,992.15
2017-09-30T03:50:49.132Z,992.13
2017-09-30T03:51:49.133Z,992.13
2017-09-30T03:52:49.155Z,992.12
2017-09-30T03:53:49.131Z,992.16
2017-09-30T03:54:49.133Z,992.12
2017-09-30T03:55:49.129Z,992.12
2017-09-30T03:56:49.133Z,992.1
2017-09-30T03:57:49.131Z,992.1
2017-09-30T03:58:49.130Z,992.06
2017-09-30T03:59:49.132Z,992.1
2017-09-30T04:00:49.131Z,992.07
2017-09-30T04:01:49.131Z,992.11
2017-09-30T04:02:49.130Z,992.08
2017-09-30T04:03:49.133Z,992.13
2017-09-30T04:04:49.132Z,992.17
2017-09-30T04:05:49.130Z,992.14
2017-09-30T04:06:49.131Z,992.16
2017-09-30T04:07:49.132Z,992.14
2017-09-30T04:08:49.162Z,992.17
2017-09-30T04:09:49.133Z,992.12
2017-09-30T04:10:49.136Z,992.16
2017-09-30T04:11:49.131Z,992.11
2017-09-30T04:12:49.132Z,992.05
2017-09-30T04:13:49.131Z,992.08
2017-09-30T04:14:49.137Z,992.09
2017-09-30T04:15:49.165Z,992.1
2017-09-30T04:16:49.137Z,992.02
2017-09-30T04:17:49.137Z,992.03
2017-09-30T04:18:49.137Z,992
2017-09-30T04:19:49.134Z,992.01
2017-09-30T04:20:49.137Z,991.98
2017-09-30T04:21:49.142Z,991.96
2017-09-30T04:22:49.141Z,991.95
2017-09-30T04:23:49.138Z,991.9
2017-09-30T04:24:49.137Z,991.88
2017-09-30T04:25:49.140Z,991.87
2017-09-30T04:26:49.149Z,991.83
2017-09-30T04:27:49.140Z,991.84
2017-09-30T04:28:49.141Z,991.85
2017-09-30T04:29:49.141Z,991.85
2017-09-30T04:30:49.144Z,991.83
2017-09-30T04:31:49.144Z,991.84
2017-09-30T04:32:49.143Z,991.81
2017-09-30T04:33:49.143Z,991.8
2017-09-30T04:34:49.143Z,991.83
2017-09-30T04:35:49.142Z,991.85
2017-09-30T04:36:49.132Z,991.78
2017-09-30T04:37:49.132Z,991.79
2017-09-30T04:38:49.130Z,991.73
2017-09-30T04:39:49.131Z,991.73
2017-09-30T04:40:49.132Z,991.75
2017-09-30T04:41:49.132Z,991.72
2017-09-30T04:42:49.131Z,991.66
2017-09-30T04:43:49.131Z,991.68
2017-09-30T04:44:49.130Z,991.68
2017-09-30T04:45:49.131Z,991.69
2017-09-30T04:46:49.131Z,991.68
2017-09-30T04:47:49.130Z,991.68
2017-09-30T04:48:49.129Z,991.69
2017-09-30T04:49:49.131Z,991.67
2017-09-30T04:50:49.130Z,991.7
2017-09-30T04:51:49.130Z,991.69
2017-09-30T04:52:49.130Z,991.63
2017-09-30T04:53:49.130Z,991.65
2017-09-30T04:54:49.130Z,991.62
2017-09-30T04:55:49.128Z,991.57
2017-09-30T04:56:49.132Z,991.6
2017-09-30T04:57:49.127Z,991.57
2017-09-30T04:58:49.133Z,991.57
2017-09-30T04:59:49.127Z,991.57
2017-09-30T05:00:49.132Z,991.66
2017-09-30T05:01:49.134Z,991.6
2017-09-30T05:02:49.126Z,991.6
2017-09-30T05:03:49.129Z,991.56
2017-09-30T05:04:49.126Z,991.58
2017-09-30T05:05:49.129Z,991.61
2017-09-30T05:06:49.126Z,991.57
2017-09-30T05:07:49.127Z,991.56
2017-09-30T05:08:49.127Z,991.6
2017-09-30T05:09:49.126Z,991.59
2017-09-30T05:10:49.127Z,991.65
2017-09-30T05:11:49.127Z,991.65
2017-09-30T05:12:49.123Z,991.64
2017-09-30T05:13:49.123Z,991.68
2017-09-30T05:14:49.124Z,991.68
2017-09-30T05:15:49.124Z,991.67
2017-09-30T05:16:49.123Z,991.7
2017-09-30T05:17:51.275Z,991.77
2017-09-30T05:18:49.122Z,991.79
2017-09-30T05:19:49.124Z,991.79
2017-09-30T05:20:49.123Z,991.78
2017-09-30T05:21:49.124Z,991.79
2017-09-30T05:22:49.121Z,991.76
2017-09-30T05:23:49.123Z,991.74
2017-09-30T05:24:49.123Z,991.76
2017-09-30T05:25:49.123Z,991.72
2017-09-30T05:26:49.121Z,991.73
2017-09-30T05:27:49.123Z,991.69
2017-09-30T05:28:49.122Z,991.67
2017-09-30T05:29:49.121Z,991.66
2017-09-30T05:30:49.121Z,991.7
2017-09-30T05:31:49.121Z,991.68
2017-09-30T05:32:49.122Z,991.69
2017-09-30T05:33:49.122Z,991.72
2017-09-30T05:34:49.152Z,991.71
2017-09-30T05:35:49.151Z,991.75
2017-09-30T05:36:49.122Z,991.76
2017-09-30T05:37:49.123Z,991.73
2017-09-30T05:38:49.122Z,991.76
2017-09-30T05:39:49.122Z,991.72
2017-09-30T05:40:49.121Z,991.74
2017-09-30T05:41:49.123Z,991.73
2017-09-30T05:42:49.122Z,991.72
2017-09-30T05:43:49.122Z,991.72
2017-09-30T05:44:49.122Z,991.75
2017-09-30T05:45:49.122Z,991.75
2017-09-30T05:46:49.125Z,991.79
2017-09-30T05:47:49.121Z,991.77
2017-09-30T05:48:49.122Z,991.76
2017-09-30T05:49:49.121Z,991.78
2017-09-30T05:50:49.125Z,991.79
2017-09-30T05:51:49.125Z,991.77
2017-09-30T05:52:49.123Z,991.76
2017-09-30T05:53:49.123Z,991.74
2017-09-30T05:54:49.124Z,991.76
2017-09-30T05:55:49.123Z,991.78
2017-09-30T05:56:49.126Z,991.77
2017-09-30T05:57:49.124Z,991.75
2017-09-30T05:58:49.135Z,991.77
2017-09-30T05:59:49.127Z,991.79
2017-09-30T06:00:49.125Z,991.8
2017-09-30T06:01:49.127Z,991.78
2017-09-30T06:02:49.129Z,991.8
2017-09-30T06:03:49.127Z,991.81
2017-09-30T06:04:49.130Z,991.79
2017-09-30T06:05:49.129Z,991.79
2017-09-30T06:06:49.133Z,991.83
2017-09-30T06:07:49.130Z,991.82
2017-09-30T06:08:49.131Z,991.85
2017-09-30T06:09:49.158Z,991.81
2017-09-30T06:10:49.131Z,991.79
2017-09-30T06:11:49.129Z,991.82
2017-09-30T06:12:49.128Z,991.81
2017-09-30T06:13:49.133Z,991.76
2017-09-30T06:14:49.138Z,991.81
2017-09-30T06:15:49.132Z,991.77
2017-09-30T06:16:49.131Z,991.81
2017-09-30T06:17:49.146Z,991.78
2017-09-30T06:18:49.139Z,991.82
2017-09-30T06:19:49.132Z,991.82
2017-09-30T06:20:49.140Z,991.78
2017-09-30T06:21:49.143Z,991.79
2017-09-30T06:22:49.138Z,991.8
2017-09-30T06:23:49.139Z,991.8
2017-09-30T06:24:49.137Z,991.74
2017-09-30T06:25:49.142Z,991.73
2017-09-30T06:26:49.133Z,991.73
2017-09-30T06:27:49.139Z,991.73
2017-09-30T06:28:49.139Z,991.72
2017-09-30T06:29:49.138Z,991.7
2017-09-30T06:30:49.143Z,991.69
2017-09-30T06:31:49.142Z,991.7
2017-09-30T06:32:49.140Z,991.67
2017-09-30T06:33:49.143Z,991.63
2017-09-30T06:34:49.150Z,991.63
2017-09-30T06:35:49.139Z,991.56
2017-09-30T06:36:49.145Z,991.59
2017-09-30T06:37:49.145Z,991.58
2017-09-30T06:38:49.153Z,991.52
2017-09-30T06:39:49.152Z,991.53
2017-09-30T06:40:49.146Z,991.48
2017-09-30T06:41:49.147Z,991.5
2017-09-30T06:42:49.148Z,991.48
2017-09-30T06:43:49.145Z,991.46
2017-09-30T06:44:49.149Z,991.45
2017-09-30T06:45:49.146Z,991.38
2017-09-30T06:46:49.151Z,991.4
2017-09-30T06:47:49.160Z,991.39
2017-09-30T06:48:49.148Z,991.43
2017-09-30T06:49:49.152Z,991.44
2017-09-30T06:50:49.149Z,991.42
2017-09-30T06:51:49.149Z,991.44
2017-09-30T06:52:49.152Z,991.43
2017-09-30T06:53:49.151Z,991.43
2017-09-30T06:54:49.163Z,991.42
2017-09-30T06:55:49.159Z,991.42
2017-09-30T06:56:49.150Z,991.35
2017-09-30T06:57:49.157Z,991.39
2017-09-30T06:58:49.155Z,991.43
2017-09-30T06:59:49.163Z,991.37
2017-09-30T07:00:49.159Z,991.39
2017-09-30T07:01:49.158Z,991.39
2017-09-30T07:02:49.158Z,991.39
2017-09-30T07:03:49.158Z,991.41
2017-09-30T07:04:49.158Z,991.41
2017-09-30T07:05:49.160Z,991.4
2017-09-30T07:06:49.161Z,991.42
2017-09-30T07:07:49.167Z,991.41
2017-09-30T07:08:49.162Z,991.42
2017-09-30T07:09:49.165Z,991.42
2017-09-30T07:10:49.165Z,991.41
2017-09-30T07:11:49.168Z,991.4
2017-09-30T07:12:49.169Z,991.36
2017-09-30T07:13:49.169Z,991.38
2017-09-30T07:14:49.169Z,991.37
2017-09-30T07:15:49.170Z,991.37
2017-09-30T07:16:49.172Z,991.39
2017-09-30T07:17:49.173Z,991.38
2017-09-30T07:18:53.782Z,991.4
2017-09-30T07:19:49.175Z,991.36
2017-09-30T07:20:49.176Z,991.37
2017-09-30T07:21:49.178Z,991.4
2017-09-30T07:22:49.180Z,991.38
2017-09-30T07:23:49.179Z,991.36
2017-09-30T07:24:49.182Z,991.34
2017-09-30T07:25:49.184Z,991.36
2017-09-30T07:26:49.184Z,991.35
2017-09-30T07:27:49.185Z,991.35
2017-09-30T07:28:49.187Z,991.31
2017-09-30T07:29:49.189Z,991.31
2017-09-30T07:30:49.191Z,991.28
2017-09-30T07:31:49.194Z,991.29
2017-09-30T07:32:49.194Z,991.27
2017-09-30T07:33:49.196Z,991.26
2017-09-30T07:34:49.219Z,991.24
2017-09-30T07:35:49.197Z,991.27
2017-09-30T07:36:49.202Z,991.28
2017-09-30T07:37:49.201Z,991.3
2017-09-30T07:38:49.204Z,991.34
2017-09-30T07:39:49.209Z,991.34
2017-09-30T07:40:49.207Z,991.28
2017-09-30T07:41:49.208Z,991.32
2017-09-30T07:42:49.212Z,991.3
2017-09-30T07:43:49.215Z,991.28
2017-09-30T07:44:49.219Z,991.28
2017-09-30T07:45:49.230Z,991.27
2017-09-30T07:46:49.227Z,991.29
2017-09-30T07:47:49.238Z,991.24
2017-09-30T07:48:49.241Z,991.25
2017-09-30T07:49:49.247Z,991.29
2017-09-30T07:50:49.242Z,991.34
2017-09-30T07:51:49.241Z,991.29
2017-09-30T07:52:49.251Z,991.34
2017-09-30T07:53:49.249Z,991.3
2017-09-30T07:54:49.253Z,991.32
2017-09-30T07:55:49.255Z,991.28
2017-09-30T07:56:49.258Z,991.3
2017-09-30T07:57:49.262Z,991.24
2017-09-30T07:58:49.267Z,991.34
2017-09-30T07:59:49.268Z,991.32
2017-09-30T08:00:49.272Z,991.31
2017-09-30T08:01:49.275Z,991.27
2017-09-30T08:02:49.281Z,991.27
2017-09-30T08:03:49.283Z,991.31
2017-09-30T08:04:49.287Z,991.25
2017-09-30T08:05:49.290Z,991.25
2017-09-30T08:06:49.294Z,991.26
2017-09-30T08:07:49.296Z,991.26
2017-09-30T08:08:49.298Z,991.24
2017-09-30T08:09:49.302Z,991.24
2017-09-30T08:10:49.306Z,991.22
2017-09-30T08:11:49.309Z,991.17
2017-09-30T08:12:49.312Z,991.18
2017-09-30T08:13:49.321Z,991.21
2017-09-30T08:14:49.318Z,991.15
2017-09-30T08:15:49.322Z,991.13
2017-09-30T08:16:49.327Z,991.1
2017-09-30T08:17:49.328Z,991.11
2017-09-30T08:18:49.333Z,991.09
2017-09-30T08:19:49.336Z,991.11
2017-09-30T08:20:49.339Z,991.08
2017-09-30T08:21:49.340Z,991.07
2017-09-30T08:22:49.344Z,991.04
2017-09-30T08:23:49.356Z,991.05
2017-09-30T08:24:49.351Z,991.05
2017-09-30T08:25:49.353Z,991.08
2017-09-30T08:26:49.372Z,991.05
2017-09-30T08:27:49.361Z,991.05
2017-09-30T08:28:49.364Z,991.06
2017-09-30T08:29:49.373Z,991.04
2017-09-30T08:30:49.371Z,991.01
2017-09-30T08:31:49.373Z,991.01
2017-09-30T08:32:49.377Z,991.01
2017-09-30T08:33:49.382Z,990.92
2017-09-30T08:34:49.384Z,990.95
2017-09-30T08:35:49.396Z,990.93
2017-09-30T08:36:49.390Z,990.9
2017-09-30T08:37:49.393Z,990.95
2017-09-30T08:38:49.398Z,990.87
2017-09-30T08:39:49.399Z,990.88
2017-09-30T08:40:49.403Z,990.85
2017-09-30T08:41:49.409Z,990.85
2017-09-30T08:42:49.410Z,990.79
2017-09-30T08:43:49.416Z,990.84
2017-09-30T08:44:49.416Z,990.85
2017-09-30T08:45:49.421Z,990.79
2017-09-30T08:46:49.424Z,990.82
2017-09-30T08:47:49.424Z,990.86
2017-09-30T08:48:49.430Z,990.87
2017-09-30T08:49:49.733Z,990.92
2017-09-30T08:50:49.434Z,990.96
2017-09-30T08:51:49.437Z,990.96
2017-09-30T08:52:49.441Z,990.93
2017-09-30T08:53:49.444Z,990.91
2017-09-30T08:54:49.446Z,990.87
2017-09-30T08:55:49.449Z,990.9
2017-09-30T08:56:49.451Z,990.87
2017-09-30T08:57:49.457Z,990.84
2017-09-30T08:58:49.459Z,990.85
2017-09-30T08:59:49.462Z,990.83
2017-09-30T09:00:49.464Z,990.82
2017-09-30T09:01:49.467Z,990.8
2017-09-30T09:02:49.473Z,990.76
2017-09-30T09:03:49.474Z,990.8
2017-09-30T09:04:49.531Z,990.79
2017-09-30T09:05:49.482Z,990.8
2017-09-30T09:06:49.485Z,990.76
2017-09-30T09:07:49.490Z,990.81
2017-09-30T09:08:49.499Z,990.83
2017-09-30T09:09:49.497Z,990.79
2017-09-30T09:10:49.499Z,990.76
2017-09-30T09:11:49.503Z,990.78
2017-09-30T09:12:49.508Z,990.74
2017-09-30T09:13:49.517Z,990.75
2017-09-30T09:14:49.514Z,990.72
2017-09-30T09:15:49.518Z,990.71
2017-09-30T09:16:49.520Z,990.75
2017-09-30T09:17:49.525Z,990.74
2017-09-30T09:18:49.558Z,990.77
2017-09-30T09:19:50.883Z,990.76
2017-09-30T09:20:49.545Z,990.68
2017-09-30T09:21:49.540Z,990.68
2017-09-30T09:22:49.544Z,990.65
2017-09-30T09:23:49.547Z,990.61
2017-09-30T09:24:49.551Z,990.61
2017-09-30T09:25:49.555Z,990.59
2017-09-30T09:26:49.560Z,990.61
2017-09-30T09:27:49.563Z,990.53
2017-09-30T09:28:49.569Z,990.53
2017-09-30T09:29:49.571Z,990.48
2017-09-30T09:30:49.578Z,990.47
2017-09-30T09:31:49.580Z,990.45
2017-09-30T09:32:49.584Z,990.48
2017-09-30T09:33:49.607Z,990.48
2017-09-30T09:34:49.590Z,990.5
2017-09-30T09:35:49.597Z,990.46
2017-09-30T09:36:49.600Z,990.47
2017-09-30T09:37:49.605Z,990.51
2017-09-30T09:38:49.609Z,990.44
2017-09-30T09:39:49.621Z,990.39
2017-09-30T09:40:49.620Z,990.37
2017-09-30T09:41:49.635Z,990.37
2017-09-30T09:42:49.627Z,990.39
2017-09-30T09:43:49.630Z,990.39
2017-09-30T09:44:49.635Z,990.41
2017-09-30T09:45:49.638Z,990.4
2017-09-30T09:46:49.642Z,990.39
2017-09-30T09:47:49.648Z,990.41
2017-09-30T09:48:49.661Z,990.37
2017-09-30T09:49:49.656Z,990.35
2017-09-30T09:50:49.659Z,990.27
2017-09-30T09:51:49.665Z,990.3
2017-09-30T09:52:49.705Z,990.28
2017-09-30T09:53:49.692Z,990.3
2017-09-30T09:54:49.676Z,990.21
2017-09-30T09:55:49.693Z,990.17
2017-09-30T09:56:49.696Z,990.16
2017-09-30T09:57:49.696Z,990.12
2017-09-30T09:58:49.697Z,990.12
2017-09-30T09:59:49.697Z,990.1
2017-09-30T10:00:49.704Z,990.08
2017-09-30T10:01:49.709Z,990.08
2017-09-30T10:02:49.712Z,990.05
2017-09-30T10:03:49.714Z,990.03
2017-09-30T10:04:49.721Z,990.04
2017-09-30T10:05:49.723Z,990.03
2017-09-30T10:06:49.726Z,990.01
2017-09-30T10:07:49.730Z,990
2017-09-30T10:08:49.735Z,989.99
2017-09-30T10:09:49.739Z,989.94
2017-09-30T10:10:49.741Z,989.93
2017-09-30T10:11:49.776Z,989.92
2017-09-30T10:12:49.764Z,989.95
2017-09-30T10:13:49.776Z,989.89
2017-09-30T10:14:49.761Z,989.86
2017-09-30T10:15:49.763Z,989.85
2017-09-30T10:16:49.767Z,989.84
2017-09-30T10:17:49.771Z,989.84
2017-09-30T10:18:49.773Z,989.79
2017-09-30T10:19:49.780Z,989.8
2017-09-30T10:20:49.790Z,989.76
2017-09-30T10:21:49.789Z,989.79
2017-09-30T10:22:49.794Z,989.78
2017-09-30T10:23:49.796Z,989.81
2017-09-30T10:24:49.801Z,989.81
2017-09-30T10:25:49.808Z,989.75
2017-09-30T10:26:49.810Z,989.76
2017-09-30T10:27:49.816Z,989.76
2017-09-30T10:28:49.818Z,989.79
2017-09-30T10:29:49.824Z,989.76
2017-09-30T10:30:49.831Z,989.73
2017-09-30T10:31:49.831Z,989.74
2017-09-30T10:32:49.839Z,989.68
2017-09-30T10:33:49.840Z,989.76
2017-09-30T10:34:49.857Z,989.7
2017-09-30T10:35:49.854Z,989.68
2017-09-30T10:36:49.858Z,989.69
2017-09-30T10:37:49.858Z,989.67
2017-09-30T10:38:49.861Z,989.64
2017-09-30T10:39:49.868Z,989.71
2017-09-30T10:40:49.870Z,989.64
2017-09-30T10:41:49.875Z,989.62
2017-09-30T10:42:49.879Z,989.61
2017-09-30T10:43:49.885Z,989.62
2017-09-30T10:44:49.888Z,989.66
2017-09-30T10:45:49.892Z,989.57
2017-09-30T10:46:49.896Z,989.57
2017-09-30T10:47:49.903Z,989.57
2017-09-30T10:48:49.907Z,989.52
2017-09-30T10:49:49.912Z,989.56
2017-09-30T10:50:49.915Z,989.56
2017-09-30T10:51:49.919Z,989.54
2017-09-30T10:52:49.925Z,989.56
2017-09-30T10:53:49.930Z,989.44
2017-09-30T10:54:49.934Z,989.45
2017-09-30T10:55:49.941Z,989.42
2017-09-30T10:56:49.944Z,989.46
2017-09-30T10:57:49.947Z,989.45
2017-09-30T10:58:49.952Z,989.43
2017-09-30T10:59:49.956Z,989.43
2017-09-30T11:00:49.963Z,989.42
2017-09-30T11:01:49.975Z,989.38
2017-09-30T11:02:49.977Z,989.33
2017-09-30T11:03:49.985Z,989.37
2017-09-30T11:04:49.982Z,989.37
2017-09-30T11:05:49.988Z,989.35
2017-09-30T11:06:49.991Z,989.33
2017-09-30T11:07:49.995Z,989.31
2017-09-30T11:08:50.001Z,989.31
2017-09-30T11:09:50.005Z,989.31
2017-09-30T11:10:50.011Z,989.27
2017-09-30T11:11:50.018Z,989.26
2017-09-30T11:12:50.034Z,989.26
2017-09-30T11:13:50.041Z,989.2
2017-09-30T11:14:50.030Z,989.17
2017-09-30T11:15:50.049Z,989.17
2017-09-30T11:16:50.043Z,989.16
2017-09-30T11:17:50.058Z,989.16
2017-09-30T11:18:50.050Z,989.13
2017-09-30T11:19:50.056Z,989.18
2017-09-30T11:20:50.061Z,989.11
2017-09-30T11:21:50.072Z,989.1
2017-09-30T11:22:50.069Z,989.12
2017-09-30T11:23:50.091Z,989.06
2017-09-30T11:24:50.079Z,989.12
2017-09-30T11:25:50.084Z,989.08
2017-09-30T11:26:50.113Z,989.06
2017-09-30T11:27:50.095Z,989.09
2017-09-30T11:28:50.101Z,989.15
2017-09-30T11:29:50.109Z,989.09
2017-09-30T11:30:50.109Z,989.08
2017-09-30T11:31:50.115Z,989.03
2017-09-30T11:32:50.122Z,989.04
2017-09-30T11:33:50.124Z,989.03
2017-09-30T11:34:50.128Z,988.99
2017-09-30T11:35:50.134Z,989
2017-09-30T11:36:50.159Z,988.96
2017-09-30T11:37:50.144Z,988.96
2017-09-30T11:38:50.149Z,988.92
2017-09-30T11:39:50.156Z,988.91
2017-09-30T11:40:50.161Z,988.93
2017-09-30T11:41:50.168Z,988.93
2017-09-30T11:42:50.171Z,988.91
2017-09-30T11:43:50.175Z,988.92
2017-09-30T11:44:50.184Z,988.93
2017-09-30T11:45:50.189Z,988.88
2017-09-30T11:46:50.192Z,988.92
2017-09-30T11:47:50.197Z,988.91
2017-09-30T11:48:50.202Z,988.9
2017-09-30T11:49:50.207Z,988.87
2017-09-30T11:50:50.214Z,988.85
2017-09-30T11:51:50.218Z,988.89
2017-09-30T11:52:50.224Z,988.86
2017-09-30T11:53:50.232Z,988.86
2017-09-30T11:54:50.253Z,988.79
2017-09-30T11:55:50.247Z,988.74
2017-09-30T11:56:50.251Z,988.73
2017-09-30T11:57:50.249Z,988.7
2017-09-30T11:58:50.255Z,988.7
2017-09-30T11:59:50.261Z,988.68
2017-09-30T12:00:50.270Z,988.64
2017-09-30T12:01:50.272Z,988.7
2017-09-30T12:02:50.277Z,988.65
2017-09-30T12:03:50.283Z,988.62
2017-09-30T12:04:50.287Z,988.63
2017-09-30T12:05:50.296Z,988.66
2017-09-30T12:06:50.302Z,988.63
2017-09-30T12:07:50.327Z,988.61
2017-09-30T12:08:50.315Z,988.55
2017-09-30T12:09:50.315Z,988.49
2017-09-30T12:10:50.320Z,988.48
2017-09-30T12:11:50.326Z,988.48
2017-09-30T12:12:50.330Z,988.49
2017-09-30T12:13:50.340Z,988.43
2017-09-30T12:14:50.348Z,988.41
2017-09-30T12:15:50.347Z,988.43
2017-09-30T12:16:50.352Z,988.45
2017-09-30T12:17:50.357Z,988.42
2017-09-30T12:18:50.364Z,988.36
2017-09-30T12:19:50.368Z,988.38
2017-09-30T12:20:50.373Z,988.39
2017-09-30T12:21:53.783Z,988.36
2017-09-30T12:22:50.385Z,988.37
2017-09-30T12:23:50.401Z,988.3
2017-09-30T12:24:50.397Z,988.25
2017-09-30T12:25:50.401Z,988.3
2017-09-30T12:26:50.413Z,988.21
2017-09-30T12:27:50.410Z,988.22
2017-09-30T12:28:50.417Z,988.23
2017-09-30T12:29:50.421Z,988.21
2017-09-30T12:30:50.426Z,988.2
2017-09-30T12:31:50.431Z,988.18